Terminal Aerodrome Forecast
Issued by NWS Albuquerque, NM

Home | Current Version | Previous Version | Text Only | Print | Product List | Glossary On
Versions: 1 2 3 4 5 6 7 8 9 10 11 12 13 14
607
FTUS45 KABQ 231140
TAFABQ
TAF
KABQ 231140Z 2312/2412 18011G16KT P6SM FEW060
     FM231400 20012G20KT P6SM SCT060
     FM231700 26025G35KT P6SM FEW070
     FM232200 29025G34KT P6SM FEW070
     FM240100 32015KT P6SM FEW060
     FM240600 30006KT P6SM SCT060=

USA.gov is the U.S. government's official web portal to all federal, state and local government web resources and services.